Latest Coastal Weather Observations for Moruya Airport

IDN60701

Issued at 12:21 am EST Friday 31 July 2015 (issued every 10 minutes, with the page automatically refreshed every 10 minutes)

About coastal observations | Map of coastal stations | Coastal observations for NSW | Marine services | Other Formats
Station Details ID: 069148 Name: MORUYA AIRPORT AWS Lat: -35.90 Lon: 150.14 Height: 4.0 m
Data from the previous 72 hours. | See also: Recent months for locations in New South Wales
Date/Time
EST
Temp

°C
Wind Pressure Rain
since 9am
mm
Weather Cloud Vis
km
Sea
Height
m
Swell
Dir
 
Speed
knots
Gust
knots
hPa Trend Height
m
Period
s
Dir
31/12:00am 13.8 NW 9 17 1015.4 - 0.0 - Cloudy 50 - - - -
 
Date/Time
EST
Temp

°C
Wind Pressure Rain
since 9am
mm
Weather Cloud Vis
km
Sea
Height
m
Swell
Dir
 
Speed
knots
Gust
knots
hPa Trend Height
m
Period
s
Dir
30/11:30pm 13.7 WNW 6 15 1015.7 - 0.0 - - 10 - - - -
30/11:00pm 13.7 NW 9 14 1015.7 - 0.0 - - 10 - - - -
30/10:30pm 14.0 NW 14 24 1015.6 - 0.0 - - 10 - - - -
30/10:00pm 14.0 NW 10 17 1015.4 - 0.0 - - 10 - - - -
30/09:30pm 14.1 NW 10 15 1015.7 - 0.0 - - 10 - - - -
30/09:00pm 14.1 NW 9 15 1015.4 - 0.0 - Cloudy 10 - - - -
30/08:30pm 14.1 NW 8 15 1015.2 - 0.0 - - 10 - - - -
30/08:00pm 14.1 NNW 8 13 1015.0 - 0.0 - - 10 - - - -
30/07:30pm 14.5 NW 10 20 1014.8 - 0.0 - - 10 - - - -
30/07:00pm 14.8 NNW 15 22 1014.3 - 0.0 - - 10 - - - -
30/06:30pm 14.8 NNW 9 17 1014.9 - 0.0 - - 10 - - - -
30/06:00pm 14.8 NNW 9 17 1015.1 - 0.0 - Mostly cloudy 10 - - - -
30/05:30pm 14.3 NNW 6 14 1015.2 - 0.0 - - 10 - - - -
30/05:00pm 14.8 NNW 7 11 1015.8 - 0.0 - - 10 - - - -
30/04:30pm 15.3 NNW 7 13 1015.5 - 0.0 - - 10 - - - -
30/04:00pm 15.8 NNW 9 15 1015.4 - 0.0 - - 10 - - - -
30/03:30pm 17.2 NW 10 18 1015.6 - 0.0 - - 10 - - - -
30/03:00pm 18.2 NNW 11 18 1015.8 - 0.0 - - 10 - - - -
30/02:30pm 18.7 NNW 7 10 1016.2 - 0.0 - - 10 - - - -
30/02:00pm 17.9 NNW 9 14 1016.8 - 0.0 - - 10 - - - -
30/01:30pm 19.3 NNW 7 13 1017.5 - 0.0 - - 10 - - - -
30/01:00pm 19.0 NNW 10 16 1018.1 - 0.0 - - 10 - - - -
30/12:30pm 18.8 NW 8 11 1018.7 - 0.0 - - 10 - - - -
30/12:00pm 18.5 NW 7 11 1019.3 - 0.0 - - 10 - - - -
30/11:30am 17.7 WNW 8 14 1019.9 - 0.0 - - 10 - - - -
30/11:00am 16.8 WNW 8 12 1020.1 - 0.0 - - 10 - - - -
30/10:30am 15.7 WNW 6 11 1021.0 - 0.0 - - 10 - - - -
30/10:00am 15.2 WNW 8 12 1021.5 - 0.0 - - 10 - - - -
30/09:30am 14.2 WNW 7 12 1021.9 - 0.0 - - 10 - - - -
30/09:00am 11.2 WNW 2 6 1022.2 - 0.0 - - 10 - - - -
30/08:30am 10.1 NW 4 7 1022.4 - 0.0 - - 10 - - - -
30/08:00am 9.2 NNW 5 8 1022.7 - 0.0 - - 10 - - - -
30/07:30am 6.9 NNW 7 11 1022.8 - 0.0 - - 10 - - - -
30/07:00am 5.6 NW 3 5 1023.1 - 0.0 - - 10 - - - -
30/06:30am 7.0 N 5 7 1023.0 - 0.0 - - 10 - - - -
30/06:00am 6.9 NNW 6 9 1023.2 - 0.0 - Cloudy 10 - - - -
30/05:30am 6.1 NW 6 8 1023.6 - 0.0 - - 10 - - - -
30/05:00am 6.2 NNW 6 9 1023.6 - 0.0 - - 10 - - - -
30/04:30am 6.2 NNW 6 8 1024.0 - 0.0 - - 10 - - - -
30/04:00am 6.8 NNW 7 9 1024.3 - 0.0 - - 10 - - - -
30/03:30am 7.8 NNW 7 13 1024.7 - 0.0 - - 10 - - - -
30/03:00am 8.1 N 7 12 1024.8 - 0.0 - Mostly cloudy 10 - - - -
30/02:30am 6.2 NNW 6 9 1025.2 - 0.0 - - 10 - - - -
30/02:00am 5.0 NNW 5 7 1025.7 - 0.0 - - 10 - - - -
30/01:30am 4.3 W 4 6 1026.4 - 0.0 - - 10 - - - -
30/01:04am 4.4 WNW 3 5 1026.5 - 0.0 - - 10 - - - -
30/01:00am 4.7 WNW 3 5 1026.5 - 0.0 - - 10 - - - -
30/12:30am 4.3 N 2 3 1026.9 - 0.0 - - 8 - - - -
30/12:18am 3.9 NNW 2 4 1027.1 - 0.0 - - 4 - - - -
30/12:11am 4.1 CALM 0 0 1027.3 - 0.0 - - 10 - - - -
30/12:00am 4.5 CALM 0 0 1027.8 - 0.0 - Partly cloudy 5 - - - -
 
Date/Time
EST
Temp

°C
Wind Pressure Rain
since 9am
mm
Weather Cloud Vis
km
Sea
Height
m
Swell
Dir
 
Speed
knots
Gust
knots
hPa Trend Height
m
Period
s
Dir
29/11:59pm 4.5 CALM 0 0 1027.9 - 0.0 - - 5 - - - -
29/11:30pm 4.8 CALM 0 0 1028.2 - 0.0 - - 10 - - - -
29/11:19pm 5.4 WNW 1 4 1028.1 - 0.0 - - 10 - - - -
29/11:02pm 5.8 CALM 0 0 1028.4 - 0.0 - - 5 - - - -
29/11:00pm 5.9 CALM 0 0 1028.4 - 0.0 - - 7 - - - -
29/10:30pm 6.0 CALM 0 0 1028.3 - 0.0 - - 10 - - - -
29/10:00pm 5.8 CALM 0 0 1028.4 - 0.0 - - 10 - - - -
29/09:30pm 6.0 N 1 3 1028.6 - 0.0 - - 10 - - - -
29/09:00pm 5.9 W 1 3 1029.2 - 0.0 - - 10 - - - -
29/08:30pm 6.6 CALM 0 0 1029.4 - 0.0 - - 10 - - - -
29/08:00pm 6.4 CALM 0 0 1029.4 - 0.0 - - 10 - - - -
29/07:30pm 6.7 WNW 4 6 1029.5 - 0.0 - - 10 - - - -
29/07:00pm 7.0 NNW 3 4 1029.2 - 0.0 - - 10 - - - -
29/06:30pm 7.6 WNW 2 4 1029.3 - 0.0 - - 10 - - - -
29/06:00pm 9.0 WNW 3 4 1029.3 - 0.0 - - 10 - - - -
29/05:30pm 10.9 NNW 4 5 1028.9 - 0.0 - - 10 - - - -
29/05:00pm 12.6 N 7 11 1028.7 - 0.0 - - 10 - - - -
29/04:30pm 13.6 NE 10 12 1028.8 - 0.0 - - 10 - - - -
29/04:00pm 13.9 NE 10 13 1029.3 - 0.0 - - 10 - - - -
29/03:30pm 14.6 NE 10 14 1029.1 - 0.0 - - 10 - - - -
29/03:00pm 15.0 NE 10 14 1029.1 - 0.0 - - 10 - - - -
29/02:30pm 15.1 NE 12 15 1029.3 - 0.0 - - 10 - - - -
29/02:00pm 15.5 NE 11 14 1029.7 - 0.0 - - 10 - - - -
29/01:30pm 15.4 NE 12 15 1030.2 - 0.0 - Partly cloudy 10 - - - -
29/01:00pm 15.7 NE 11 14 1030.8 - 0.0 - Partly cloudy 10 - - - -
29/12:30pm 15.5 NE 11 14 1031.4 - 0.0 - - 10 - - - -
29/12:00pm 15.2 E 8 9 1032.0 - 0.0 - - 10 - - - -
29/11:30am 14.1 E 6 8 1032.7 - 0.0 - - 10 - - - -
29/11:00am 13.9 ENE 4 5 1033.4 - 0.0 - - 10 - - - -
29/10:30am 13.5 SSW 2 6 1033.8 - 0.0 - - 10 - - - -
29/10:00am 12.1 SW 4 6 1034.3 - 0.0 - - 10 - - - -
29/09:30am 9.6 SSW 4 5 1034.4 - 0.0 - - 10 - - - -
29/09:00am 8.1 CALM 0 3 1034.6 - 0.0 - - 10 - - - -
29/08:30am 6.7 CALM 0 0 1034.5 - 0.0 - - 10 - - - -
29/08:00am 5.2 CALM 0 0 1034.4 - 0.0 - - 10 - - - -
29/07:30am 2.9 W 2 3 1034.3 - 0.0 - - 10 - - - -
29/07:23am 2.9 WNW 2 4 1034.2 - 0.0 - - 10 - - - -
29/07:00am 2.7 CALM 0 0 1034.1 - 0.0 - - 6 - - - -
29/06:58am 2.5 CALM 0 0 1034.1 - 0.0 - - 5 - - - -
29/06:32am 2.7 CALM 0 3 1033.7 - 0.0 - - 10 - - - -
29/06:30am 2.8 NNW 1 3 1033.7 - 0.0 - - 10 - - - -
29/06:05am 2.6 W 3 4 1033.5 - 0.0 - - 5 - - - -
29/06:00am 2.5 W 2 4 1033.4 - 0.0 - - 10 - - - -
29/05:30am 2.4 W 1 4 1033.2 - 0.0 - - 2 - - - -
29/05:21am 2.3 W 3 4 1033.2 - 0.0 - - 5 - - - -
29/05:00am 3.4 CALM 0 4 1033.0 - 0.0 - - 8 - - - -
29/04:50am 3.3 CALM 0 0 1033.0 - 0.0 - - 10 - - - -
29/04:30am 3.8 CALM 0 0 1032.9 - 0.0 - - 3 - - - -
29/04:07am 3.4 CALM 0 0 1033.0 - 0.0 - - 3 - - - -
29/04:00am 4.2 CALM 0 0 1033.0 - 0.0 - - 10 - - - -
29/03:32am 4.3 WSW 3 4 1032.8 - 0.0 - - 10 - - - -
29/03:30am 4.5 WSW 4 4 1032.8 - 0.0 - - 10 - - - -
29/03:16am 4.3 SW 1 4 1032.8 - 0.0 - - 5 - - - -
29/03:00am 4.8 WSW 3 5 1032.8 - 0.0 - - 10 - - - -
29/02:30am 5.0 WSW 3 4 1033.1 - 0.0 - - 10 - - - -
29/02:00am 5.4 W 5 7 1033.2 - 0.0 - - 10 - - - -
29/01:30am 5.2 WSW 5 7 1033.3 - 0.0 - - 10 - - - -
29/01:00am 6.1 W 4 6 1033.2 - 0.0 - - 10 - - - -
29/12:30am 6.9 W 5 8 1033.1 - 0.0 - - 10 - - - -
29/12:00am 6.5 WSW 4 6 1033.1 - 0.0 - Mostly clear 10 - - - -
 
Date/Time
EST
Temp

°C
Wind Pressure Rain
since 9am
mm
Weather Cloud Vis
km
Sea
Height
m
Swell
Dir
 
Speed
knots
Gust
knots
hPa Trend Height
m
Period
s
Dir
28/11:30pm 6.2 W 4 5 1033.2 - 0.0 - Partly cloudy 10 - - - -
28/11:00pm 7.2 W 4 7 1033.3 - 0.0 - - 10 - - - -
28/10:30pm 6.3 WSW 4 6 1033.3 - 0.0 - - 10 - - - -
28/10:00pm 6.7 W 5 8 1033.3 - 0.0 - - 10 - - - -
28/09:30pm 8.0 WSW 6 7 1033.3 - 0.0 - - 10 - - - -
28/09:00pm 7.0 WSW 4 6 1033.1 - 0.0 - Partly cloudy 10 - - - -
28/08:30pm 6.7 W 4 6 1033.0 - 0.0 - Partly cloudy 10 - - - -
28/08:00pm 6.3 CALM 0 0 1032.7 - 0.0 - - 10 - - - -
28/07:30pm 6.6 WSW 1 3 1032.5 - 0.0 - - 10 - - - -
28/07:00pm 7.0 WNW 4 6 1032.2 - 0.0 - - 10 - - - -
28/06:30pm 8.1 NW 3 5 1031.9 - 0.0 - - 10 - - - -
28/06:00pm 9.0 WSW 2 3 1031.6 - 0.0 - - 10 - - - -
28/05:30pm 10.2 SW 1 3 1031.2 - 0.0 - - 10 - - - -
28/05:00pm 12.4 CALM 0 3 1030.8 - 0.0 - - 10 - - - -
28/04:30pm 14.7 ESE 4 7 1030.6 - 0.0 - - 10 - - - -
28/04:00pm 14.8 SE 7 11 1030.2 - 0.0 - - 10 - - - -
28/03:30pm 15.3 SE 7 11 1030.2 - 0.0 - - 10 - - - -
28/03:00pm 16.2 SE 8 11 1030.0 - 0.0 - Partly cloudy 10 - - - -
28/02:30pm 15.8 ESE 7 10 1029.9 - 0.0 - Partly cloudy 10 - - - -
28/02:00pm 16.2 SE 8 10 1029.8 - 0.0 - Partly cloudy 10 - - - -
28/01:30pm 16.9 SW 6 9 1029.9 - 0.0 - Partly cloudy 10 - - - -
28/01:00pm 17.7 SSW 9 15 1030.1 - 0.0 - - 10 - - - -
28/12:30pm 17.0 SSW 10 15 1030.6 - 0.0 - - 10 - - - -
28/12:00pm 16.7 S 11 16 1030.8 - 0.0 - - 10 - - - -
28/11:30am 16.4 SW 7 12 1031.3 - 0.0 - - 10 - - - -
28/11:00am 15.7 SW 5 7 1031.4 - 0.0 - - 10 - - - -
28/10:30am 14.9 W 4 6 1031.8 - 0.0 - - 10 - - - -
28/10:00am 12.8 SW 4 6 1031.8 - 0.0 - - 10 - - - -
28/09:30am 11.7 W 3 6 1031.8 - 0.0 - - 10 - - - -
28/09:00am 10.4 NE 3 5 1031.7 - 0.0 - - 10 - - - -
28/08:30am 6.0 WSW 3 5 1031.4 - 0.0 - - 10 - - - -
28/08:00am 3.4 ESE 1 4 1031.2 - 0.0 - - 10 - - - -
28/07:30am 1.6 CALM 0 0 1030.8 - 0.0 - - 10 - - - -
28/07:00am 0.9 CALM 0 3 1030.2 - 0.0 - - 10 - - - -
28/06:30am 1.2 WSW 1 3 1030.0 - 0.0 - - 10 - - - -
28/06:00am 1.1 CALM 0 0 1029.5 - 0.0 - - 10 - - - -
28/05:30am 1.2 WNW 3 6 1029.0 - 0.0 - - 10 - - - -
28/05:00am 0.7 CALM 0 3 1028.6 - 0.0 - - 10 - - - -
28/04:30am 1.1 NNW 2 4 1028.5 - 0.0 - - 10 - - - -
28/04:00am 1.0 WNW 4 6 1028.3 - 0.0 - - 10 - - - -
28/03:30am 2.0 CALM 0 0 1028.3 - 0.0 - - 10 - - - -
28/03:00am 2.0 W 3 5 1028.1 - 0.0 - - 10 - - - -
28/02:30am 2.1 NNW 2 4 1028.1 - 0.0 - - 10 - - - -
28/02:00am 5.8 WNW 4 6 1028.1 - 0.0 - - 10 - - - -
28/01:30am 7.7 W 6 11 1027.8 - 0.0 - - 10 - - - -
28/01:00am 8.0 W 8 12 1027.7 - 0.0 - - 10 - - - -
28/12:30am 7.9 W 7 10 1027.7 - 0.0 - - 10 - - - -

Other Formats:

Comma delimited format used in spreadsheet applications
http://www.bom.gov.au/fwo/IDN60701/IDN60701.95937.axf

JavaScript Object Notation format (JSON) in row-major order
http://www.bom.gov.au/fwo/IDN60701/IDN60701.95937.json